Terminal Aerodrome Forecast
Issued by NWS

Home | Current Version | Previous Version | Text Only | Print | Product List | Glossary On
Versions: 1 2 3 4 5 6 7 8 9 10 11 12 13
000
FTUS43 KEAX 170900 AAA
TAFMKC
TAF AMD
KMKC 170921Z 1709/1806 12003KT P6SM VCTS BKN020CB
      TEMPO 1709/1711 4SM -TSRA OVC018CB
     FM171800 VRB04KT P6SM SCT025
     FM172300 08005KT P6SM SCT200=

USA.gov is the U.S. government's official web portal to all federal, state and local government web resources and services.